Time;durP1;ratioP1;P1;durP2;ratioP2;P2;SDS_P1;SDS_P2;PMS_P1;PMS_P2;Temp;Humidity;BMP_temperature;BMP_pressure;BME280_temperature;BME280_humidity;BME280_pressure;Samples;Min_cycle;Max_cycle;Signal;HPM_P1;HPM_P2
2024/01/26 00:01:24;;;;;;;14.43;3.63;;;;;;;;;;10454142;28;20034;-79
2024/01/26 00:06:26;;;;;;;13.90;4.30;;;;;;;;;;10452217;28;20044;-79
2024/01/26 00:11:27;;;;;;;10.00;3.30;;;;;;;;;;10465378;28;20115;-79
2024/01/26 00:16:28;;;;;;;17.60;3.50;;;;;;;;;;10446494;28;20029;-79
2024/01/26 00:21:29;;;;;;;16.47;3.80;;;;;;;;;;10457054;28;20379;-81
2024/01/26 00:26:30;;;;;;;22.17;4.03;;;;;;;;;;10450584;28;20115;-78
2024/01/26 00:31:32;;;;;;;15.20;4.17;;;;;;;;;;10462102;28;20064;-79
2024/01/26 00:36:33;;;;;;;16.37;4.20;;;;;;;;;;10467029;28;20024;-79
2024/01/26 00:41:34;;;;;;;14.77;4.27;;;;;;;;;;10470460;28;20465;-79
2024/01/26 00:46:37;;;;;;;18.37;4.27;;;;;;;;;;10444841;28;20035;-79
2024/01/26 00:51:38;;;;;;;13.43;4.03;;;;;;;;;;10471311;28;20041;-79
2024/01/26 00:56:39;;;;;;;10.00;3.80;;;;;;;;;;10439965;28;20040;-80
2024/01/26 01:01:40;;;;;;;18.83;4.27;;;;;;;;;;10449751;28;20065;-80
2024/01/26 01:06:42;;;;;;;18.17;3.57;;;;;;;;;;10439068;28;20116;-81
2024/01/26 01:11:43;;;;;;;20.00;3.63;;;;;;;;;;10445986;28;20040;-80
2024/01/26 01:16:45;;;;;;;13.67;3.87;;;;;;;;;;10442097;28;20642;-78
2024/01/26 01:21:46;;;;;;;10.90;4.20;;;;;;;;;;10460204;28;20020;-82
2024/01/26 01:26:47;;;;;;;15.47;3.17;;;;;;;;;;10445160;28;20044;-80
2024/01/26 01:31:48;;;;;;;17.83;3.70;;;;;;;;;;10440217;28;20085;-81
2024/01/26 01:36:49;;;;;;;20.17;3.87;;;;;;;;;;10435917;28;20765;-78
2024/01/26 01:41:50;;;;;;;14.13;3.83;;;;;;;;;;10427580;28;20037;-81
2024/01/26 01:46:51;;;;;;;15.43;3.77;;;;;;;;;;10440646;28;20036;-79
2024/01/26 01:51:55;;;;;;;16.77;3.20;;;;;;;;;;10443430;28;20643;-80
2024/01/26 01:56:57;;;;;;;10.33;3.13;;;;;;;;;;10472313;28;20051;-81
2024/01/26 02:01:58;;;;;;;10.47;3.00;;;;;;;;;;10445821;28;20039;-81
2024/01/26 02:07:00;;;;;;;13.53;4.33;;;;;;;;;;10432722;28;20083;-78
2024/01/26 02:12:01;;;;;;;9.70;3.27;;;;;;;;;;10435419;28;20485;-80
2024/01/26 02:17:08;;;;;;;18.53;3.63;;;;;;;;;;10416774;28;20061;-81
2024/01/26 02:22:15;;;;;;;12.27;3.77;;;;;;;;;;10434096;28;20068;-79
2024/01/26 02:27:16;;;;;;;13.60;3.40;;;;;;;;;;10439906;28;20052;-81
2024/01/26 02:32:17;;;;;;;16.83;4.47;;;;;;;;;;10432709;28;20824;-79
2024/01/26 02:37:19;;;;;;;10.93;3.10;;;;;;;;;;10470239;28;20590;-79
2024/01/26 02:42:20;;;;;;;10.70;3.67;;;;;;;;;;10409922;28;20033;-81
2024/01/26 02:47:21;;;;;;;11.63;3.80;;;;;;;;;;10459754;28;20024;-79
2024/01/26 02:52:22;;;;;;;11.90;3.83;;;;;;;;;;10448239;28;20032;-79
2024/01/26 02:57:23;;;;;;;12.43;3.23;;;;;;;;;;10468534;28;20024;-79
2024/01/26 03:02:24;;;;;;;12.37;3.67;;;;;;;;;;10456293;28;20043;-80
2024/01/26 03:07:25;;;;;;;10.27;3.60;;;;;;;;;;10444622;28;20052;-79
2024/01/26 03:12:26;;;;;;;8.33;3.47;;;;;;;;;;10431202;28;20033;-79
2024/01/26 03:17:27;;;;;;;10.10;3.10;;;;;;;;;;10425238;28;20052;-78
2024/01/26 03:22:28;;;;;;;7.10;2.80;;;;;;;;;;10445986;28;20132;-79
2024/01/26 03:27:28;;;;;;;12.80;3.03;;;;;;;;;;10461425;28;20058;-81
2024/01/26 03:32:30;;;;;;;9.87;3.20;;;;;;;;;;10439894;28;20066;-80
2024/01/26 03:37:31;;;;;;;8.67;3.60;;;;;;;;;;10460995;28;20075;-79
2024/01/26 03:42:32;;;;;;;12.63;2.80;;;;;;;;;;10441491;28;20115;-79
2024/01/26 03:47:33;;;;;;;8.30;2.43;;;;;;;;;;10426734;28;20040;-78
2024/01/26 03:52:34;;;;;;;9.20;2.83;;;;;;;;;;10467271;28;20036;-80
2024/01/26 03:57:35;;;;;;;12.60;2.90;;;;;;;;;;10470952;28;20120;-79
2024/01/26 04:02:36;;;;;;;9.43;2.90;;;;;;;;;;10430370;28;20033;-79
2024/01/26 04:07:37;;;;;;;13.30;3.47;;;;;;;;;;10458166;28;20045;-79
2024/01/26 04:12:38;;;;;;;13.23;3.37;;;;;;;;;;10444029;28;20045;-78
2024/01/26 04:17:39;;;;;;;13.97;3.80;;;;;;;;;;10436315;28;20041;-79
2024/01/26 04:22:41;;;;;;;11.27;3.70;;;;;;;;;;10448472;28;20086;-78
2024/01/26 04:27:42;;;;;;;11.60;3.20;;;;;;;;;;10468136;28;20033;-79
2024/01/26 04:32:43;;;;;;;12.83;3.80;;;;;;;;;;10452785;28;20596;-79
2024/01/26 04:37:44;;;;;;;17.43;4.60;;;;;;;;;;10474205;28;20103;-81
2024/01/26 04:42:45;;;;;;;11.03;3.57;;;;;;;;;;10457742;28;20033;-78
2024/01/26 04:47:46;;;;;;;10.80;3.43;;;;;;;;;;10437598;28;20708;-78
2024/01/26 04:52:49;;;;;;;12.83;3.07;;;;;;;;;;10458948;28;20037;-81
2024/01/26 04:57:50;;;;;;;11.43;3.10;;;;;;;;;;10441544;28;20061;-79
2024/01/26 05:02:51;;;;;;;10.10;3.03;;;;;;;;;;10448219;28;20108;-79
2024/01/26 05:07:52;;;;;;;8.03;2.70;;;;;;;;;;10460220;28;20065;-78
2024/01/26 05:12:53;;;;;;;13.23;4.20;;;;;;;;;;10473709;28;20519;-79
2024/01/26 05:17:54;;;;;;;16.37;3.83;;;;;;;;;;10450494;28;20083;-81
2024/01/26 05:22:55;;;;;;;17.67;4.23;;;;;;;;;;10453319;28;20480;-82
2024/01/26 05:27:56;;;;;;;16.53;3.53;;;;;;;;;;10452923;28;20032;-82
2024/01/26 05:32:57;;;;;;;13.93;4.40;;;;;;;;;;10441548;28;20122;-78
2024/01/26 05:37:58;;;;;;;11.87;3.67;;;;;;;;;;10457881;28;20033;-79
2024/01/26 05:42:59;;;;;;;11.47;3.53;;;;;;;;;;10434574;28;20068;-81
2024/01/26 05:48:00;;;;;;;21.07;9.37;;;;;;;;;;10440087;28;20047;-79
2024/01/26 05:53:02;;;;;;;17.67;6.60;;;;;;;;;;10455180;28;20049;-79
2024/01/26 05:58:04;;;;;;;25.53;10.57;;;;;;;;;;10452746;28;20028;-79
2024/01/26 06:03:05;;;;;;;28.20;11.17;;;;;;;;;;10430555;28;20036;-81
2024/01/26 06:08:06;;;;;;;43.77;14.80;;;;;;;;;;10425740;28;20025;-81
2024/01/26 06:13:07;;;;;;;22.03;6.73;;;;;;;;;;10436752;28;20052;-84
2024/01/26 06:18:08;;;;;;;24.20;9.73;;;;;;;;;;10430665;28;20111;-82
2024/01/26 06:23:10;;;;;;;23.37;9.77;;;;;;;;;;10430757;28;20430;-81
2024/01/26 06:28:11;;;;;;;13.30;4.73;;;;;;;;;;10439033;28;20392;-82
2024/01/26 06:33:12;;;;;;;18.73;7.17;;;;;;;;;;10410089;28;20525;-79
2024/01/26 06:38:13;;;;;;;19.63;7.13;;;;;;;;;;10436418;28;20052;-81
2024/01/26 06:43:16;;;;;;;24.47;10.87;;;;;;;;;;10437168;28;20038;-82
2024/01/26 06:48:17;;;;;;;26.27;10.23;;;;;;;;;;10435050;28;20045;-81
2024/01/26 06:53:18;;;;;;;16.73;7.77;;;;;;;;;;10438429;28;20053;-80
2024/01/26 06:58:19;;;;;;;19.17;8.77;;;;;;;;;;10436962;28;20047;-79
2024/01/26 07:03:20;;;;;;;40.00;17.00;;;;;;;;;;10418874;28;20033;-78
2024/01/26 07:08:21;;;;;;;35.20;13.97;;;;;;;;;;10448214;28;20029;-83
2024/01/26 07:13:22;;;;;;;34.60;15.37;;;;;;;;;;10428264;28;20091;-79
2024/01/26 07:18:23;;;;;;;24.60;10.50;;;;;;;;;;10415636;28;20039;-79
2024/01/26 07:23:24;;;;;;;28.73;11.60;;;;;;;;;;10440545;28;20029;-78
2024/01/26 07:28:25;;;;;;;38.77;16.33;;;;;;;;;;10459933;28;20025;-79
2024/01/26 07:33:26;;;;;;;42.67;17.63;;;;;;;;;;10447712;28;20160;-78
2024/01/26 07:38:27;;;;;;;44.90;18.53;;;;;;;;;;10460176;28;20029;-81
2024/01/26 07:43:28;;;;;;;62.57;26.73;;;;;;;;;;10450365;28;20036;-79
2024/01/26 07:48:29;;;;;;;62.07;23.13;;;;;;;;;;10461695;28;20041;-81
2024/01/26 07:53:30;;;;;;;62.10;27.47;;;;;;;;;;10476113;28;20051;-77
2024/01/26 07:58:31;;;;;;;66.10;32.63;;;;;;;;;;10488920;28;20119;-78
2024/01/26 08:03:32;;;;;;;74.43;35.33;;;;;;;;;;10452265;28;20033;-80
2024/01/26 08:08:33;;;;;;;77.07;35.43;;;;;;;;;;10474535;28;20083;-80
2024/01/26 08:13:41;;;;;;;68.10;31.53;;;;;;;;;;10468165;28;20073;-78
2024/01/26 08:18:48;;;;;;;53.40;23.67;;;;;;;;;;10488677;28;20043;-78
2024/01/26 08:23:49;;;;;;;65.23;28.50;;;;;;;;;;10475001;28;20112;-77
2024/01/26 08:28:50;;;;;;;51.03;24.37;;;;;;;;;;10462628;28;20383;-79
2024/01/26 08:33:59;;;;;;;35.77;14.27;;;;;;;;;;10459556;28;20145;-81
2024/01/26 08:39:00;;;;;;;21.70;9.50;;;;;;;;;;10460231;28;20024;-78
2024/01/26 08:44:01;;;;;;;24.03;7.03;;;;;;;;;;10461908;28;20698;-78
2024/01/26 08:49:02;;;;;;;26.57;8.57;;;;;;;;;;10450341;28;20467;-78
2024/01/26 08:54:03;;;;;;;29.77;11.17;;;;;;;;;;10451357;28;20047;-81
2024/01/26 08:59:06;;;;;;;25.63;8.23;;;;;;;;;;10472928;28;20511;-81
2024/01/26 09:04:08;;;;;;;26.53;9.63;;;;;;;;;;10458491;28;20025;-78
2024/01/26 09:09:09;;;;;;;31.67;10.97;;;;;;;;;;10442725;28;20500;-79
2024/01/26 09:14:10;;;;;;;39.53;16.90;;;;;;;;;;10471404;28;20040;-79
2024/01/26 09:19:11;;;;;;;34.27;12.83;;;;;;;;;;10471027;28;20024;-79
2024/01/26 09:24:24;;;;;;;33.47;14.07;;;;;;;;;;10460693;28;20078;-80
2024/01/26 09:29:26;;;;;;;28.43;11.60;;;;;;;;;;10468054;28;20032;-78
2024/01/26 09:34:27;;;;;;;31.60;12.23;;;;;;;;;;10442120;28;20088;-80
2024/01/26 09:39:28;;;;;;;23.80;9.60;;;;;;;;;;10476683;28;20480;-78
2024/01/26 09:44:29;;;;;;;31.10;11.10;;;;;;;;;;10471194;28;20032;-78
2024/01/26 09:49:30;;;;;;;29.67;10.87;;;;;;;;;;10471565;28;20032;-79
2024/01/26 09:54:31;;;;;;;24.87;8.03;;;;;;;;;;10470368;28;20039;-78
2024/01/26 09:59:32;;;;;;;19.40;9.97;;;;;;;;;;10471169;28;20028;-77
2024/01/26 10:04:33;;;;;;;20.43;8.20;;;;;;;;;;10484140;28;20473;-77
2024/01/26 10:09:35;;;;;;;26.73;10.50;;;;;;;;;;10469204;28;20025;-82
2024/01/26 10:14:37;;;;;;;26.37;9.70;;;;;;;;;;10456390;28;20067;-78
2024/01/26 10:19:46;;;;;;;25.93;9.50;;;;;;;;;;10456052;28;20049;-78
2024/01/26 10:24:47;;;;;;;32.50;11.27;;;;;;;;;;10475213;28;20039;-78
2024/01/26 10:29:48;;;;;;;35.07;16.20;;;;;;;;;;10457892;28;20545;-78
2024/01/26 10:35:05;;;;;;;18.83;9.00;;;;;;;;;;10468812;28;20101;-78
2024/01/26 10:40:09;;;;;;;23.27;10.57;;;;;;;;;;10459146;28;20041;-80
2024/01/26 10:45:10;;;;;;;67.07;38.00;;;;;;;;;;10483424;28;20124;-78
2024/01/26 10:50:11;;;;;;;22.97;9.27;;;;;;;;;;10469880;28;20035;-78
2024/01/26 10:55:14;;;;;;;24.17;9.77;;;;;;;;;;10454418;28;20112;-78
2024/01/26 11:00:15;;;;;;;25.27;11.20;;;;;;;;;;10442142;28;20021;-78
2024/01/26 11:05:17;;;;;;;15.70;6.00;;;;;;;;;;10461027;28;20020;-78
2024/01/26 11:10:20;;;;;;;13.07;5.70;;;;;;;;;;10450561;28;20064;-80
2024/01/26 11:15:25;;;;;;;15.07;6.27;;;;;;;;;;10470342;28;20168;-77
2024/01/26 11:20:31;;;;;;;18.23;7.57;;;;;;;;;;10468606;28;20021;-78
2024/01/26 11:25:35;;;;;;;21.67;8.50;;;;;;;;;;10474885;28;20021;-81
2024/01/26 11:30:37;;;;;;;12.70;5.23;;;;;;;;;;10475377;28;20306;-78
2024/01/26 11:35:44;;;;;;;30.03;12.53;;;;;;;;;;10473734;28;20133;-78
2024/01/26 11:40:46;;;;;;;19.07;8.60;;;;;;;;;;10453252;28;20101;-78
2024/01/26 11:45:47;;;;;;;15.87;5.97;;;;;;;;;;10476290;28;20028;-78
2024/01/26 11:50:49;;;;;;;22.30;11.20;;;;;;;;;;10482491;28;20151;-78
2024/01/26 11:55:52;;;;;;;15.67;5.60;;;;;;;;;;10470348;28;20549;-78
2024/01/26 12:00:53;;;;;;;21.90;7.77;;;;;;;;;;10476251;28;20036;-78
2024/01/26 12:05:54;;;;;;;21.83;8.07;;;;;;;;;;10475628;28;20380;-81
2024/01/26 12:10:55;;;;;;;53.67;20.57;;;;;;;;;;10473822;28;20032;-78
2024/01/26 12:15:57;;;;;;;13.77;5.13;;;;;;;;;;10473409;28;20056;-79
2024/01/26 12:20:58;;;;;;;7.77;3.40;;;;;;;;;;10449512;28;20037;-78
2024/01/26 12:25:59;;;;;;;17.97;6.80;;;;;;;;;;10471018;28;20440;-78
2024/01/26 12:31:01;;;;;;;14.07;4.47;;;;;;;;;;10447204;28;20033;-79
2024/01/26 12:36:02;;;;;;;14.70;5.13;;;;;;;;;;10449586;28;20060;-77
2024/01/26 12:41:03;;;;;;;11.63;4.53;;;;;;;;;;10461315;28;20051;-78
2024/01/26 12:46:05;;;;;;;14.97;5.13;;;;;;;;;;10461033;28;20392;-78
2024/01/26 12:51:06;;;;;;;13.03;5.90;;;;;;;;;;10459914;28;20076;-79
2024/01/26 12:56:07;;;;;;;17.03;7.30;;;;;;;;;;10477439;28;20032;-79
2024/01/26 13:01:08;;;;;;;20.40;7.37;;;;;;;;;;10484013;28;20361;-80
2024/01/26 13:06:09;;;;;;;16.97;7.77;;;;;;;;;;10459443;28;20547;-78
2024/01/26 13:11:10;;;;;;;19.37;8.83;;;;;;;;;;10471510;28;20037;-78
2024/01/26 13:16:11;;;;;;;26.20;8.97;;;;;;;;;;10473223;28;20032;-79
2024/01/26 13:21:13;;;;;;;14.13;7.07;;;;;;;;;;10459578;28;20020;-78
2024/01/26 13:26:14;;;;;;;23.77;10.50;;;;;;;;;;10485010;28;20035;-78
2024/01/26 13:31:15;;;;;;;26.37;11.90;;;;;;;;;;10479416;28;20040;-81
2024/01/26 13:36:16;;;;;;;23.57;11.77;;;;;;;;;;10455840;28;20059;-78
2024/01/26 13:41:17;;;;;;;26.80;10.63;;;;;;;;;;10447265;28;20073;-78
2024/01/26 13:46:18;;;;;;;40.80;23.80;;;;;;;;;;10474964;28;20124;-80
2024/01/26 13:51:19;;;;;;;15.37;6.63;;;;;;;;;;10457201;28;20029;-82
2024/01/26 13:56:20;;;;;;;17.17;5.27;;;;;;;;;;10470059;28;20021;-78
2024/01/26 14:01:21;;;;;;;38.03;15.47;;;;;;;;;;10443289;28;20028;-78
2024/01/26 14:06:23;;;;;;;22.03;6.37;;;;;;;;;;10469929;28;20037;-77
2024/01/26 14:11:23;;;;;;;19.13;7.87;;;;;;;;;;10457188;28;20029;-78
2024/01/26 14:16:31;;;;;;;19.00;6.10;;;;;;;;;;10474947;28;20031;-79
2024/01/26 14:21:34;;;;;;;27.70;8.63;;;;;;;;;;10464972;28;20040;-78
2024/01/26 14:26:38;;;;;;;20.97;8.00;;;;;;;;;;10469963;28;20040;-78
2024/01/26 14:31:39;;;;;;;25.00;9.80;;;;;;;;;;10456250;28;20107;-77
2024/01/26 14:36:42;;;;;;;23.27;10.73;;;;;;;;;;10454185;28;20057;-78
2024/01/26 14:41:43;;;;;;;26.83;9.63;;;;;;;;;;10475404;28;20405;-78
2024/01/26 14:46:44;;;;;;;21.10;8.10;;;;;;;;;;10478946;28;20639;-79
2024/01/26 14:51:45;;;;;;;36.47;15.63;;;;;;;;;;10477764;28;20071;-78
2024/01/26 14:56:46;;;;;;;27.70;12.53;;;;;;;;;;10475929;28;20116;-79
2024/01/26 15:01:47;;;;;;;41.03;17.83;;;;;;;;;;10450180;28;20033;-80
2024/01/26 15:06:55;;;;;;;47.80;22.43;;;;;;;;;;10481705;28;20051;-80
2024/01/26 15:11:57;;;;;;;42.93;19.80;;;;;;;;;;10491348;28;20534;-78
2024/01/26 15:16:59;;;;;;;47.53;19.53;;;;;;;;;;10464608;28;20055;-77
2024/01/26 15:22:07;;;;;;;42.70;19.20;;;;;;;;;;10477351;28;20067;-80
2024/01/26 15:27:08;;;;;;;44.27;18.73;;;;;;;;;;10488946;28;20086;-77
2024/01/26 15:32:09;;;;;;;54.27;24.70;;;;;;;;;;10458982;28;20036;-78
2024/01/26 15:37:11;;;;;;;61.60;31.10;;;;;;;;;;10428091;28;20046;-78
2024/01/26 15:42:12;;;;;;;35.80;15.20;;;;;;;;;;10437386;28;20112;-78
2024/01/26 15:47:13;;;;;;;52.47;23.07;;;;;;;;;;10457605;28;20029;-77
2024/01/26 15:52:14;;;;;;;49.30;23.37;;;;;;;;;;10465041;28;20539;-78
2024/01/26 15:57:15;;;;;;;47.07;19.33;;;;;;;;;;10440652;28;20028;-78
2024/01/26 16:02:16;;;;;;;123.87;61.17;;;;;;;;;;10447781;28;20517;-79
2024/01/26 16:07:18;;;;;;;45.60;26.30;;;;;;;;;;10427545;28;20024;-77
2024/01/26 16:12:19;;;;;;;176.83;71.63;;;;;;;;;;10443800;28;20503;-77
2024/01/26 16:17:20;;;;;;;187.17;69.50;;;;;;;;;;10438229;28;20032;-78
2024/01/26 16:22:21;;;;;;;134.07;54.33;;;;;;;;;;10440866;28;20499;-77
2024/01/26 16:27:22;;;;;;;109.83;51.00;;;;;;;;;;10433429;28;20029;-79
2024/01/26 16:32:23;;;;;;;60.00;23.93;;;;;;;;;;10435880;28;20441;-80
2024/01/26 16:37:24;;;;;;;56.37;24.70;;;;;;;;;;10437885;28;20057;-78
2024/01/26 16:42:25;;;;;;;63.97;26.57;;;;;;;;;;10442177;28;20526;-78
2024/01/26 16:47:26;;;;;;;48.50;23.10;;;;;;;;;;10443946;28;20040;-78
2024/01/26 16:52:27;;;;;;;43.43;19.33;;;;;;;;;;10442025;28;20090;-83
2024/01/26 16:57:28;;;;;;;45.97;19.23;;;;;;;;;;10438026;28;20600;-78
2024/01/26 17:02:29;;;;;;;59.33;27.00;;;;;;;;;;10429762;28;20055;-78
2024/01/26 17:07:30;;;;;;;52.67;22.50;;;;;;;;;;10432984;28;20491;-78
2024/01/26 17:12:31;;;;;;;48.83;20.87;;;;;;;;;;10437373;28;20045;-78
2024/01/26 17:17:32;;;;;;;39.00;16.00;;;;;;;;;;10430559;28;20484;-78
2024/01/26 17:22:36;;;;;;;30.33;11.90;;;;;;;;;;10442752;28;20033;-77
2024/01/26 17:27:38;;;;;;;30.60;12.97;;;;;;;;;;10442651;28;20776;-79
2024/01/26 17:32:39;;;;;;;40.40;17.23;;;;;;;;;;10434785;28;20040;-78
2024/01/26 17:37:40;;;;;;;26.43;12.07;;;;;;;;;;10438782;28;20561;-80
2024/01/26 17:42:41;;;;;;;26.70;12.20;;;;;;;;;;10428856;28;20147;-80
2024/01/26 17:47:47;;;;;;;32.73;12.50;;;;;;;;;;10428568;28;20037;-78
2024/01/26 17:52:48;;;;;;;26.40;12.50;;;;;;;;;;10431121;28;20877;-78
2024/01/26 17:57:49;;;;;;;32.00;11.83;;;;;;;;;;10451490;28;20601;-81
2024/01/26 18:02:50;;;;;;;29.30;11.00;;;;;;;;;;10443120;28;20121;-78
2024/01/26 18:07:51;;;;;;;31.93;13.50;;;;;;;;;;10439185;28;20810;-78
2024/01/26 18:12:59;;;;;;;31.13;12.70;;;;;;;;;;10468224;28;20083;-81
2024/01/26 18:18:00;;;;;;;34.13;15.80;;;;;;;;;;10451062;28;20046;-80
2024/01/26 18:23:01;;;;;;;48.90;21.97;;;;;;;;;;10433589;28;20418;-82
2024/01/26 18:28:02;;;;;;;60.70;26.53;;;;;;;;;;10448256;28;20054;-81
2024/01/26 18:33:04;;;;;;;44.03;18.57;;;;;;;;;;10420437;28;20103;-81
2024/01/26 18:38:05;;;;;;;44.13;21.13;;;;;;;;;;10433307;28;20071;-78
2024/01/26 18:43:06;;;;;;;42.77;19.00;;;;;;;;;;10460993;28;20029;-79
2024/01/26 18:48:07;;;;;;;55.03;23.60;;;;;;;;;;10432893;28;20033;-78
2024/01/26 18:53:08;;;;;;;44.27;21.40;;;;;;;;;;10441618;28;20048;-80
2024/01/26 18:58:09;;;;;;;54.53;23.83;;;;;;;;;;10450971;28;20032;-80
2024/01/26 19:03:10;;;;;;;52.37;24.30;;;;;;;;;;10447161;28;20024;-79
2024/01/26 19:08:11;;;;;;;42.33;20.07;;;;;;;;;;10430391;28;20087;-78
2024/01/26 19:13:12;;;;;;;57.57;25.43;;;;;;;;;;10469044;28;20468;-80
2024/01/26 19:18:15;;;;;;;41.70;20.73;;;;;;;;;;10411284;28;20026;-79
2024/01/26 19:23:16;;;;;;;55.53;24.03;;;;;;;;;;10455942;28;20056;-79
2024/01/26 19:28:18;;;;;;;47.23;22.23;;;;;;;;;;10443469;28;20079;-78
2024/01/26 19:33:19;;;;;;;94.77;42.00;;;;;;;;;;10425080;28;20037;-78
2024/01/26 19:38:20;;;;;;;70.27;36.00;;;;;;;;;;10431585;28;20056;-79
2024/01/26 19:43:21;;;;;;;51.23;23.97;;;;;;;;;;10452941;28;20597;-77
2024/01/26 19:48:22;;;;;;;51.40;24.97;;;;;;;;;;10461050;28;20032;-81
2024/01/26 19:53:26;;;;;;;67.57;33.70;;;;;;;;;;10425297;28;20041;-81
2024/01/26 19:58:28;;;;;;;55.97;26.17;;;;;;;;;;10446707;28;20526;-78
2024/01/26 20:03:30;;;;;;;51.87;23.67;;;;;;;;;;10447984;28;20603;-81
2024/01/26 20:08:38;;;;;;;66.23;35.63;;;;;;;;;;10472351;28;20039;-78
2024/01/26 20:13:39;;;;;;;45.93;23.67;;;;;;;;;;10459610;28;20044;-79
2024/01/26 20:18:41;;;;;;;47.67;23.20;;;;;;;;;;10473738;28;20078;-78
2024/01/26 20:23:42;;;;;;;41.57;19.63;;;;;;;;;;10451651;28;20037;-78
2024/01/26 20:28:43;;;;;;;35.80;18.13;;;;;;;;;;10451400;28;20032;-80
2024/01/26 20:33:44;;;;;;;40.83;20.53;;;;;;;;;;10442373;28;20751;-78
2024/01/26 20:38:47;;;;;;;48.30;23.13;;;;;;;;;;10445282;28;20112;-78
2024/01/26 20:43:48;;;;;;;48.03;23.87;;;;;;;;;;10434707;28;20021;-78
2024/01/26 20:48:49;;;;;;;47.27;24.13;;;;;;;;;;10455874;28;20117;-78
2024/01/26 20:53:50;;;;;;;50.97;27.90;;;;;;;;;;10435104;28;20082;-78
2024/01/26 20:58:52;;;;;;;52.30;28.43;;;;;;;;;;10453166;28;20032;-77
2024/01/26 21:03:53;;;;;;;53.07;26.37;;;;;;;;;;10453114;28;20024;-79
2024/01/26 21:08:54;;;;;;;58.43;28.63;;;;;;;;;;10453898;28;20040;-78
2024/01/26 21:13:56;;;;;;;48.40;25.30;;;;;;;;;;10436849;28;20094;-78
2024/01/26 21:18:58;;;;;;;48.77;24.40;;;;;;;;;;10451538;28;20029;-78
2024/01/26 21:24:04;;;;;;;45.60;23.47;;;;;;;;;;10438135;28;20064;-78
2024/01/26 21:29:05;;;;;;;27.13;14.50;;;;;;;;;;10435944;28;20044;-78
2024/01/26 21:34:06;;;;;;;32.50;15.60;;;;;;;;;;10468572;28;20048;-78
2024/01/26 21:39:07;;;;;;;23.87;11.73;;;;;;;;;;10444539;28;20491;-79
2024/01/26 21:44:08;;;;;;;23.53;12.90;;;;;;;;;;10446404;28;20037;-78
2024/01/26 21:49:09;;;;;;;24.27;11.37;;;;;;;;;;10436277;28;20036;-78
2024/01/26 21:54:18;;;;;;;18.27;9.33;;;;;;;;;;10445260;28;20072;-78
2024/01/26 21:59:19;;;;;;;14.63;7.00;;;;;;;;;;10433382;28;20663;-80
2024/01/26 22:04:23;;;;;;;8.33;4.53;;;;;;;;;;10430891;28;20064;-78
2024/01/26 22:09:24;;;;;;;9.00;4.67;;;;;;;;;;10443112;28;20029;-80
2024/01/26 22:14:25;;;;;;;5.13;2.83;;;;;;;;;;10442645;28;20040;-78
2024/01/26 22:19:27;;;;;;;4.83;2.43;;;;;;;;;;10441676;28;20041;-77
2024/01/26 22:24:28;;;;;;;4.63;2.57;;;;;;;;;;10445581;28;20045;-77
2024/01/26 22:29:29;;;;;;;5.53;2.60;;;;;;;;;;10446372;28;20041;-77
2024/01/26 22:34:30;;;;;;;6.47;2.77;;;;;;;;;;10424724;28;20057;-78
2024/01/26 22:39:31;;;;;;;6.33;2.33;;;;;;;;;;10445607;28;20029;-80
2024/01/26 22:44:32;;;;;;;5.40;2.60;;;;;;;;;;10434644;28;20083;-77
2024/01/26 22:49:33;;;;;;;3.23;2.10;;;;;;;;;;10447290;28;20032;-80
2024/01/26 22:54:34;;;;;;;3.70;2.17;;;;;;;;;;10440122;28;20045;-78
2024/01/26 22:59:35;;;;;;;4.20;1.97;;;;;;;;;;10446095;28;20037;-79
2024/01/26 23:04:36;;;;;;;3.03;1.30;;;;;;;;;;10434560;28;20518;-81
2024/01/26 23:09:37;;;;;;;2.37;1.23;;;;;;;;;;10430744;28;20037;-78
2024/01/26 23:14:38;;;;;;;2.10;1.50;;;;;;;;;;10431569;28;20053;-78
2024/01/26 23:19:39;;;;;;;2.77;1.27;;;;;;;;;;10443674;28;20103;-78
2024/01/26 23:24:40;;;;;;;2.87;1.30;;;;;;;;;;10447491;28;20021;-78
2024/01/26 23:29:41;;;;;;;11.10;2.43;;;;;;;;;;10449460;28;20208;-78
2024/01/26 23:34:46;;;;;;;5.17;1.83;;;;;;;;;;10461314;28;20048;-78
2024/01/26 23:39:47;;;;;;;6.53;1.73;;;;;;;;;;10443293;28;20706;-79
2024/01/26 23:44:48;;;;;;;3.93;2.13;;;;;;;;;;10427910;28;20036;-78
2024/01/26 23:49:49;;;;;;;8.07;2.20;;;;;;;;;;10442307;28;20079;-77
2024/01/26 23:54:51;;;;;;;3.80;1.90;;;;;;;;;;10439525;28;20112;-78
2024/01/26 23:59:52;;;;;;;6.73;2.33;;;;;;;;;;10443749;28;20029;-78
